createdAt,value
2022-10-18T00:02:20.134Z,4.47
2022-10-18T00:04:50.360Z,4.90
2022-10-18T00:07:18.825Z,4.00
2022-10-18T00:09:47.324Z,4.15
2022-10-18T00:12:15.827Z,3.97
2022-10-18T00:14:44.285Z,4.50
2022-10-18T00:17:12.893Z,4.35
2022-10-18T00:19:41.284Z,4.63
2022-10-18T00:22:11.101Z,4.55
2022-10-18T00:24:39.617Z,4.72
2022-10-18T00:27:08.286Z,4.97
2022-10-18T00:29:36.859Z,4.28
2022-10-18T00:32:05.654Z,5.63
2022-10-18T00:34:34.141Z,4.88
2022-10-18T00:37:02.679Z,4.55
2022-10-18T00:39:32.497Z,5.78
2022-10-18T00:42:00.981Z,5.18
2022-10-18T00:45:01.933Z,6.43
2022-10-18T00:47:30.946Z,4.80
2022-10-18T00:50:02.966Z,5.10
2022-10-18T00:52:35.976Z,4.50
2022-10-18T00:55:07.563Z,4.25
2022-10-18T00:57:37.396Z,4.57
2022-10-18T01:00:09.710Z,4.32
2022-10-18T01:02:39.070Z,4.20
2022-10-18T01:05:13.605Z,5.05
2022-10-18T01:08:04.975Z,4.53
2022-10-18T01:10:42.084Z,4.57
2022-10-18T01:13:25.920Z,4.15
2022-10-18T01:16:00.738Z,4.80
2022-10-18T01:18:33.362Z,5.10
2022-10-18T01:21:16.387Z,4.80
2022-10-18T01:24:21.432Z,5.00
2022-10-18T01:27:09.677Z,4.43
2022-10-18T01:29:49.448Z,4.53
2022-10-18T01:32:22.965Z,4.53
2022-10-18T01:34:53.996Z,5.72
2022-10-18T01:37:23.580Z,5.78
2022-10-18T01:39:55.980Z,5.30
2022-10-18T01:42:25.122Z,5.70
2022-10-18T01:44:54.716Z,5.00
2022-10-18T01:47:24.945Z,4.90
2022-10-18T01:49:59.944Z,4.20
2022-10-18T01:52:28.802Z,5.25
2022-10-18T01:54:58.685Z,5.45
2022-10-18T01:57:35.561Z,4.88
2022-10-18T02:00:13.322Z,4.82
2022-10-18T02:02:50.701Z,5.88
2022-10-18T02:05:25.591Z,5.43
2022-10-18T02:08:18.837Z,5.47
2022-10-18T02:10:52.708Z,4.00
2022-10-18T02:13:23.585Z,5.35
2022-10-18T02:15:57.637Z,5.10
2022-10-18T02:18:35.273Z,5.10
2022-10-18T02:21:05.854Z,5.30
2022-10-18T02:23:35.989Z,4.90
2022-10-18T02:26:04.756Z,5.55
2022-10-18T02:28:33.311Z,6.70
2022-10-18T02:31:10.204Z,5.70
2022-10-18T02:33:46.351Z,5.25
2022-10-18T02:36:19.304Z,5.63
2022-10-18T02:38:49.345Z,5.88
2022-10-18T02:41:24.297Z,5.60
2022-10-18T02:43:52.788Z,5.68
2022-10-18T02:46:22.029Z,6.15
2022-10-18T02:48:51.843Z,5.47
2022-10-18T02:51:20.345Z,7.68
2022-10-18T02:53:48.791Z,7.93
2022-10-18T02:56:17.733Z,8.30
2022-10-18T02:58:46.221Z,8.70
2022-10-18T03:01:14.868Z,8.77
2022-10-18T03:03:43.970Z,8.20
2022-10-18T03:06:14.021Z,8.00
2022-10-18T03:08:42.593Z,8.30
2022-10-18T03:11:11.129Z,6.97
2022-10-18T03:13:39.581Z,6.80
2022-10-18T03:16:08.056Z,6.03
2022-10-18T03:18:36.617Z,5.82
2022-10-18T03:21:06.369Z,6.85
2022-10-18T03:23:36.488Z,6.13
2022-10-18T03:26:05.190Z,5.90
2022-10-18T03:28:33.721Z,5.40
2022-10-18T03:31:02.938Z,6.10
2022-10-18T03:33:31.852Z,20.25
2022-10-18T03:36:00.302Z,19.45
2022-10-18T03:38:28.925Z,17.92
2022-10-18T03:40:58.742Z,14.75
2022-10-18T03:43:27.328Z,13.00
2022-10-18T03:45:55.823Z,9.57
2022-10-18T03:48:24.589Z,8.32
2022-10-18T03:50:53.104Z,7.68
2022-10-18T03:53:21.621Z,7.55
2022-10-18T03:55:53.034Z,9.00
2022-10-18T03:58:24.118Z,9.48
2022-10-18T04:00:53.102Z,9.27
2022-10-18T04:03:23.185Z,9.20
2022-10-18T04:05:52.105Z,9.50
2022-10-18T04:08:20.928Z,8.75
2022-10-18T04:10:49.487Z,7.90
2022-10-18T04:13:17.921Z,7.85
2022-10-18T04:15:47.767Z,9.23
2022-10-18T04:18:16.301Z,8.55
2022-10-18T04:20:44.777Z,8.18
2022-10-18T04:23:13.328Z,8.02
2022-10-18T04:25:44.761Z,6.95
2022-10-18T04:28:13.285Z,7.18
2022-10-18T04:30:41.741Z,7.38
2022-10-18T04:33:11.597Z,8.75
2022-10-18T04:35:40.231Z,7.88
2022-10-18T04:38:09.196Z,7.47
2022-10-18T04:40:38.326Z,7.50
2022-10-18T04:43:06.806Z,7.10
2022-10-18T04:45:35.381Z,7.47
2022-10-18T04:48:03.951Z,7.47
2022-10-18T04:50:33.780Z,6.30
2022-10-18T04:53:02.277Z,5.57
2022-10-18T04:55:30.781Z,6.32
2022-10-18T04:57:59.245Z,6.03
2022-10-18T05:00:27.915Z,6.70
2022-10-18T05:02:57.877Z,6.03
2022-10-18T05:05:43.218Z,6.00
2022-10-18T05:08:16.424Z,5.88
2022-10-18T05:10:44.973Z,6.13
2022-10-18T05:13:13.411Z,4.90
2022-10-18T05:15:41.946Z,6.22
2022-10-18T05:18:10.509Z,5.57
2022-10-18T05:20:39.025Z,4.88
2022-10-18T05:23:10.696Z,5.97
2022-10-18T05:25:41.253Z,4.90
2022-10-18T05:28:27.188Z,5.05
2022-10-18T05:31:03.002Z,4.70
2022-10-18T05:33:32.018Z,4.97
2022-10-18T05:36:00.872Z,4.47
2022-10-18T05:38:30.944Z,5.38
2022-10-18T05:41:01.002Z,4.90
2022-10-18T05:43:30.075Z,5.22
2022-10-18T05:45:58.542Z,5.10
2022-10-18T05:48:27.011Z,4.90
2022-10-18T05:50:55.561Z,5.25
2022-10-18T05:53:36.254Z,5.95
2022-10-18T05:56:08.194Z,5.20
2022-10-18T05:58:36.767Z,5.28
2022-10-18T06:01:06.904Z,4.75
2022-10-18T06:03:35.981Z,4.38
2022-10-18T06:06:06.087Z,4.47
2022-10-18T06:08:35.141Z,4.78
2022-10-18T06:11:09.207Z,5.47
2022-10-18T06:13:42.025Z,4.80
2022-10-18T06:16:11.407Z,4.78
2022-10-18T06:18:40.734Z,4.70
2022-10-18T06:21:10.477Z,5.13
2022-10-18T06:23:39.036Z,5.13
2022-10-18T06:26:11.690Z,5.35
2022-10-18T06:28:40.332Z,5.03
2022-10-18T06:31:08.974Z,5.28
2022-10-18T06:33:38.114Z,4.68
2022-10-18T06:36:08.781Z,5.40
2022-10-18T06:38:37.284Z,5.55
2022-10-18T06:41:08.742Z,5.30
2022-10-18T06:43:37.576Z,4.80
2022-10-18T06:46:08.216Z,5.20
2022-10-18T06:48:37.305Z,4.45
2022-10-18T06:51:07.429Z,4.75
2022-10-18T06:53:44.017Z,4.28
2022-10-18T06:56:23.197Z,4.95
2022-10-18T06:58:51.741Z,4.03
2022-10-18T07:01:21.047Z,4.10
2022-10-18T07:03:52.730Z,4.07
2022-10-18T07:06:21.609Z,5.40
2022-10-18T07:08:52.475Z,4.90
2022-10-18T07:11:25.109Z,5.53
2022-10-18T07:13:55.009Z,4.93
2022-10-18T07:16:23.503Z,5.28
2022-10-18T07:18:52.742Z,6.13
2022-10-18T07:21:22.567Z,5.28
2022-10-18T07:23:51.899Z,5.00
2022-10-18T07:26:22.091Z,4.60
2022-10-18T07:28:54.651Z,4.88
2022-10-18T07:31:23.728Z,4.95
2022-10-18T07:33:52.416Z,5.32
2022-10-18T07:36:22.207Z,5.18
2022-10-18T07:38:52.089Z,5.43
2022-10-18T07:41:21.720Z,5.47
2022-10-18T07:43:52.967Z,5.88
2022-10-18T07:46:22.829Z,4.72
2022-10-18T07:48:51.916Z,5.47
2022-10-18T07:51:23.362Z,5.35
2022-10-18T07:53:51.871Z,5.15
2022-10-18T07:56:22.029Z,5.38
2022-10-18T07:58:53.657Z,5.40
2022-10-18T08:01:23.688Z,5.60
2022-10-18T08:03:53.136Z,5.40
2022-10-18T08:06:22.989Z,5.32
2022-10-18T08:08:52.128Z,6.53
2022-10-18T08:11:22.660Z,7.45
2022-10-18T08:13:52.977Z,9.65
2022-10-18T08:16:23.623Z,6.90
2022-10-18T08:18:52.541Z,7.70
2022-10-18T08:21:22.382Z,7.25
2022-10-18T08:23:51.163Z,7.88
2022-10-18T08:26:21.513Z,8.43
2022-10-18T08:29:10.339Z,8.93
2022-10-18T08:31:40.595Z,7.15
2022-10-18T08:34:09.150Z,7.15
2022-10-18T08:36:38.515Z,6.18
2022-10-18T08:39:07.043Z,5.85
2022-10-18T08:42:08.727Z,6.63
2022-10-18T08:44:44.892Z,6.70
2022-10-18T08:47:17.415Z,6.72
2022-10-18T08:49:49.804Z,6.97
2022-10-18T08:52:27.333Z,6.55
2022-10-18T08:55:01.996Z,7.15
2022-10-18T08:57:32.321Z,7.53
2022-10-18T09:00:03.340Z,6.68
2022-10-18T09:02:48.577Z,6.28
2022-10-18T09:05:25.988Z,5.63
2022-10-18T09:08:30.387Z,6.50
2022-10-18T09:11:17.910Z,5.22
2022-10-18T09:14:24.012Z,5.10
2022-10-18T09:17:05.086Z,5.38
2022-10-18T09:19:54.927Z,5.82
2022-10-18T09:22:30.472Z,5.63
2022-10-18T09:25:07.358Z,5.28
2022-10-18T09:27:43.484Z,4.65
2022-10-18T09:30:21.030Z,3.85
2022-10-18T09:32:56.324Z,4.82
2022-10-18T09:35:28.312Z,4.75
2022-10-18T09:38:03.557Z,4.35
2022-10-18T09:40:36.287Z,4.47
2022-10-18T09:43:11.654Z,5.95
2022-10-18T09:45:44.001Z,6.90
2022-10-18T09:48:19.383Z,5.97
2022-10-18T09:50:53.789Z,7.25
2022-10-18T09:53:33.950Z,6.63
2022-10-18T09:56:05.960Z,6.72
2022-10-18T09:58:44.064Z,7.53
2022-10-18T10:01:15.168Z,8.23
2022-10-18T10:03:45.209Z,6.97
2022-10-18T10:06:25.252Z,6.90
2022-10-18T10:09:00.925Z,6.80
2022-10-18T10:11:35.706Z,6.63
2022-10-18T10:16:53.297Z,6.85
2022-10-18T10:19:27.194Z,9.85
2022-10-18T10:22:00.920Z,9.85
2022-10-18T10:24:44.285Z,8.85
2022-10-18T10:27:20.545Z,8.25
2022-10-18T10:30:01.521Z,8.05
2022-10-18T10:32:46.897Z,9.00
2022-10-18T10:35:41.259Z,9.07
2022-10-18T10:38:25.031Z,11.05
2022-10-18T10:40:54.620Z,10.90
2022-10-18T10:43:40.777Z,12.98
2022-10-18T10:46:11.481Z,12.32
2022-10-18T10:48:50.636Z,14.20
2022-10-18T10:51:30.683Z,12.50
2022-10-18T10:54:02.657Z,12.80
2022-10-18T10:56:34.381Z,14.32
2022-10-18T10:59:10.964Z,13.68
2022-10-18T11:01:39.561Z,12.98
2022-10-18T11:04:24.470Z,13.30
2022-10-18T11:07:04.098Z,15.25
2022-10-18T11:09:59.416Z,14.90
2022-10-18T11:12:34.950Z,15.93
2022-10-18T11:15:21.821Z,14.88
2022-10-18T11:18:03.497Z,13.90
2022-10-18T11:20:35.917Z,17.02
2022-10-18T11:23:08.753Z,14.77
2022-10-18T11:26:03.943Z,14.07
2022-10-18T11:28:46.636Z,16.50
2022-10-18T11:31:19.981Z,15.48
2022-10-18T11:34:09.896Z,14.05
2022-10-18T11:36:56.279Z,15.55
2022-10-18T11:39:42.274Z,17.00
2022-10-18T11:42:20.279Z,17.13
2022-10-18T11:44:59.541Z,15.90
2022-10-18T11:47:38.123Z,16.80
2022-10-18T11:50:20.394Z,16.30
2022-10-18T11:53:03.183Z,17.52
2022-10-18T11:55:50.306Z,17.02
2022-10-18T11:58:34.920Z,16.55
2022-10-18T12:01:12.860Z,17.85
2022-10-18T12:03:54.692Z,16.77
2022-10-18T12:06:27.273Z,16.45
2022-10-18T12:09:00.579Z,16.70
2022-10-18T12:11:34.943Z,18.88
2022-10-18T12:14:05.565Z,18.25
2022-10-18T12:16:51.057Z,18.42
2022-10-18T12:19:26.682Z,17.90
2022-10-18T12:21:58.990Z,20.90
2022-10-18T12:24:31.364Z,20.88
2022-10-18T12:27:02.611Z,21.58
2022-10-18T12:29:39.264Z,21.77
2022-10-18T12:32:11.929Z,21.10
2022-10-18T12:34:47.534Z,21.23
2022-10-18T12:37:41.384Z,22.77
2022-10-18T12:40:18.778Z,24.65
2022-10-18T12:42:53.726Z,23.98
2022-10-18T12:45:34.743Z,25.75
2022-10-18T12:48:06.545Z,25.27
2022-10-18T12:50:37.443Z,26.00
2022-10-18T12:53:16.646Z,23.88
2022-10-18T12:55:47.081Z,24.40
2022-10-18T12:58:33.671Z,26.55
2022-10-18T13:01:08.049Z,23.83
2022-10-18T13:04:01.513Z,24.25
2022-10-18T13:07:03.655Z,25.92
2022-10-18T13:09:35.242Z,24.17
2022-10-18T13:12:51.979Z,26.95
2022-10-18T13:15:38.339Z,27.60
2022-10-18T13:18:19.624Z,26.90
2022-10-18T13:20:57.452Z,27.20
2022-10-18T13:23:43.510Z,26.67
2022-10-18T13:26:20.313Z,28.92
2022-10-18T13:28:57.180Z,27.10
2022-10-18T13:31:36.003Z,28.00
2022-10-18T13:34:25.404Z,25.73
2022-10-18T13:37:00.138Z,28.08
2022-10-18T13:39:29.801Z,26.98
2022-10-18T13:42:21.161Z,28.13
2022-10-18T13:44:49.799Z,26.42
2022-10-18T13:47:34.687Z,23.65
2022-10-18T13:50:28.906Z,24.38
2022-10-18T13:53:34.931Z,24.77
2022-10-18T13:56:36.083Z,23.58
2022-10-18T13:59:29.167Z,23.73
2022-10-18T14:02:30.790Z,23.55
2022-10-18T14:05:25.676Z,23.05
2022-10-18T14:08:01.069Z,23.98
2022-10-18T14:10:57.451Z,23.85
2022-10-18T14:13:42.616Z,23.67
2022-10-18T14:16:26.338Z,24.63
2022-10-18T14:19:01.922Z,23.58
2022-10-18T14:21:38.783Z,25.27
2022-10-18T14:24:18.536Z,25.60
2022-10-18T14:26:47.419Z,24.52
2022-10-18T14:29:21.112Z,27.60
2022-10-18T14:31:55.544Z,26.55
2022-10-18T14:34:24.129Z,27.25
2022-10-18T14:36:53.994Z,26.98
2022-10-18T14:39:27.452Z,25.83
2022-10-18T14:41:57.922Z,24.65
2022-10-18T14:44:28.867Z,26.15
2022-10-18T14:47:02.165Z,27.23
2022-10-18T14:49:31.650Z,30.35
2022-10-18T14:52:01.886Z,31.52
2022-10-18T14:54:32.834Z,33.50
2022-10-18T14:57:02.048Z,33.33
2022-10-18T14:59:34.289Z,32.78
2022-10-18T15:02:05.975Z,32.17
2022-10-18T15:04:34.532Z,28.88
2022-10-18T15:07:06.209Z,29.17
2022-10-18T15:09:37.887Z,31.65
2022-10-18T15:12:07.955Z,27.80
2022-10-18T15:14:37.589Z,29.70
2022-10-18T15:17:13.010Z,27.75
2022-10-18T15:19:53.916Z,23.83
2022-10-18T15:22:31.723Z,21.33
2022-10-18T15:25:15.845Z,22.83
2022-10-18T15:27:47.106Z,20.40
2022-10-18T15:30:22.906Z,20.33
2022-10-18T15:32:54.351Z,20.13
2022-10-18T15:35:26.758Z,19.35
2022-10-18T15:37:58.377Z,18.52
2022-10-18T15:40:38.865Z,18.38
2022-10-18T15:43:34.819Z,18.88
2022-10-18T15:46:06.755Z,16.45
2022-10-18T15:48:38.109Z,18.00
2022-10-18T15:51:07.817Z,16.98
2022-10-18T15:53:44.213Z,15.40
2022-10-18T15:56:29.021Z,15.55
2022-10-18T15:58:58.723Z,15.82
2022-10-18T16:01:34.158Z,16.63
2022-10-18T16:04:06.029Z,15.23
2022-10-18T16:06:37.371Z,15.80
2022-10-18T16:09:07.425Z,15.20
2022-10-18T16:11:35.975Z,14.75
2022-10-18T16:14:04.449Z,16.08
2022-10-18T16:16:33.180Z,16.33
2022-10-18T16:19:02.034Z,14.82
2022-10-18T16:21:32.433Z,15.98
2022-10-18T16:24:01.182Z,15.98
2022-10-18T16:26:31.377Z,14.25
2022-10-18T16:29:00.658Z,15.23
2022-10-18T16:31:31.859Z,14.48
2022-10-18T16:34:01.890Z,13.63
2022-10-18T16:36:32.325Z,14.63
2022-10-18T16:39:03.359Z,13.05
2022-10-18T16:41:33.282Z,13.95
2022-10-18T16:44:01.821Z,13.50
2022-10-18T16:46:33.585Z,13.70
2022-10-18T16:49:02.829Z,14.32
2022-10-18T16:51:31.828Z,14.05
2022-10-18T16:54:00.378Z,14.32
2022-10-18T16:56:31.685Z,14.05
2022-10-18T16:59:02.011Z,13.90
2022-10-18T17:01:30.528Z,13.77
2022-10-18T17:03:59.261Z,13.93
2022-10-18T17:06:30.502Z,15.60
2022-10-18T17:08:59.237Z,14.05
2022-10-18T17:11:31.111Z,13.85
2022-10-18T17:14:01.169Z,14.98
2022-10-18T17:16:31.972Z,16.60
2022-10-18T17:19:02.379Z,15.18
2022-10-18T17:21:31.506Z,15.85
2022-10-18T17:24:01.121Z,15.10
2022-10-18T17:26:30.290Z,15.70
2022-10-18T17:29:02.431Z,15.07
2022-10-18T17:31:31.628Z,15.23
2022-10-18T17:34:02.062Z,14.60
2022-10-18T17:36:31.355Z,16.50
2022-10-18T17:39:00.256Z,16.33
2022-10-18T17:41:28.944Z,16.27
2022-10-18T17:43:57.551Z,14.27
2022-10-18T17:46:27.502Z,17.27
2022-10-18T17:48:56.483Z,16.08
2022-10-18T17:51:25.031Z,17.33
2022-10-18T17:53:54.483Z,17.73
2022-10-18T17:56:22.927Z,15.82
2022-10-18T17:58:51.915Z,16.52
2022-10-18T18:01:22.953Z,17.65
2022-10-18T18:03:57.432Z,18.88
2022-10-18T18:06:30.748Z,17.33
2022-10-18T18:08:59.833Z,17.73
2022-10-18T18:11:29.279Z,18.15
2022-10-18T18:13:58.497Z,17.33
2022-10-18T18:16:28.386Z,16.98
2022-10-18T18:18:59.444Z,18.75
2022-10-18T18:21:28.581Z,16.85
2022-10-18T18:23:57.141Z,18.02
2022-10-18T18:26:32.408Z,17.70
2022-10-18T18:31:38.757Z,17.90
2022-10-18T18:34:11.677Z,17.67
2022-10-18T18:36:40.949Z,15.00
2022-10-18T18:39:10.105Z,15.25
2022-10-18T18:41:38.622Z,16.90
2022-10-18T18:44:07.397Z,17.65
2022-10-18T18:46:38.589Z,16.35
2022-10-18T18:49:07.990Z,15.98
2022-10-18T18:51:39.574Z,15.38
2022-10-18T18:54:09.028Z,16.88
2022-10-18T18:56:38.477Z,16.80
2022-10-18T18:59:07.515Z,16.25
2022-10-18T19:01:37.668Z,17.48
2022-10-18T19:04:08.389Z,15.82
2022-10-18T19:06:40.050Z,15.95
2022-10-18T19:09:13.112Z,15.27
2022-10-18T19:11:41.613Z,15.40
2022-10-18T19:14:10.137Z,15.43
2022-10-18T19:16:40.162Z,15.02
2022-10-18T19:19:12.499Z,14.77
2022-10-18T19:21:44.842Z,14.70
2022-10-18T19:24:13.739Z,12.57
2022-10-18T19:26:44.816Z,14.70
2022-10-18T19:29:15.562Z,16.42
2022-10-18T19:31:44.738Z,18.55
2022-10-18T19:34:15.288Z,17.98
2022-10-18T19:36:47.625Z,16.77
2022-10-18T19:39:18.324Z,13.00
2022-10-18T19:41:47.045Z,14.82
2022-10-18T19:44:15.727Z,14.75
2022-10-18T19:46:44.614Z,14.55
2022-10-18T19:49:13.374Z,12.93
2022-10-18T19:51:42.416Z,13.70
2022-10-18T19:54:13.024Z,13.38
2022-10-18T19:56:42.093Z,13.18
2022-10-18T19:59:11.682Z,13.85
2022-10-18T20:01:40.309Z,14.55
2022-10-18T20:04:09.797Z,13.77
2022-10-18T20:06:39.596Z,14.02
2022-10-18T20:09:09.131Z,13.43
2022-10-18T20:11:39.290Z,13.23
2022-10-18T20:14:09.541Z,12.52
2022-10-18T20:16:38.299Z,12.63
2022-10-18T20:19:08.220Z,12.88
2022-10-18T20:21:37.241Z,11.90
2022-10-18T20:24:06.683Z,12.77
2022-10-18T20:26:35.842Z,12.60
2022-10-18T20:29:07.490Z,12.75
2022-10-18T20:31:38.938Z,12.65
2022-10-18T20:34:09.586Z,12.85
2022-10-18T20:36:38.536Z,12.82
2022-10-18T20:39:07.799Z,13.02
2022-10-18T20:41:38.601Z,13.18
2022-10-18T20:44:13.114Z,12.80
2022-10-18T20:46:42.350Z,12.13
2022-10-18T20:49:14.497Z,12.75
2022-10-18T20:51:45.346Z,11.73
2022-10-18T20:54:13.858Z,12.57
2022-10-18T20:56:42.494Z,11.98
2022-10-18T20:59:12.370Z,12.65
2022-10-18T21:01:41.068Z,12.10
2022-10-18T21:04:11.008Z,11.70
2022-10-18T21:06:41.278Z,12.32
2022-10-18T21:09:12.208Z,10.73
2022-10-18T21:11:43.004Z,11.65
2022-10-18T21:14:15.151Z,12.07
2022-10-18T21:16:44.461Z,12.35
2022-10-18T21:19:16.887Z,11.55
2022-10-18T21:21:47.350Z,12.07
2022-10-18T21:24:16.001Z,10.98
2022-10-18T21:26:45.041Z,11.48
2022-10-18T21:29:19.334Z,11.30
2022-10-18T21:31:50.624Z,11.25
2022-10-18T21:34:19.139Z,12.00
2022-10-18T21:36:49.071Z,11.75
2022-10-18T21:39:19.742Z,10.95
2022-10-18T21:41:48.718Z,11.73
2022-10-18T21:44:18.695Z,10.65
2022-10-18T21:46:47.588Z,11.38
2022-10-18T21:49:16.801Z,11.32
2022-10-18T21:51:45.985Z,11.73
2022-10-18T21:54:17.046Z,13.80
2022-10-18T21:56:46.393Z,12.02
2022-10-18T21:59:15.202Z,13.10
2022-10-18T22:01:45.637Z,12.18
2022-10-18T22:04:21.911Z,11.45
2022-10-18T22:06:51.028Z,12.65
2022-10-18T22:09:19.848Z,11.90
2022-10-18T22:11:51.361Z,11.82
2022-10-18T22:14:19.997Z,11.68
2022-10-18T22:16:50.105Z,10.82
2022-10-18T22:19:18.921Z,11.98
2022-10-18T22:21:47.642Z,10.80
2022-10-18T22:24:16.159Z,11.27
2022-10-18T22:26:46.000Z,10.63
2022-10-18T22:29:16.252Z,12.18
2022-10-18T22:31:46.644Z,11.60
2022-10-18T22:34:19.727Z,10.65
2022-10-18T22:36:48.341Z,10.60
2022-10-18T22:39:17.468Z,11.13
2022-10-18T22:41:46.503Z,11.27
2022-10-18T22:44:16.103Z,10.90
2022-10-18T22:46:44.642Z,10.52
2022-10-18T22:49:13.716Z,10.88
2022-10-18T22:51:43.522Z,10.95
2022-10-18T22:54:12.646Z,10.68
2022-10-18T22:56:41.113Z,11.48
2022-10-18T22:59:09.746Z,11.45
2022-10-18T23:01:39.470Z,10.90
2022-10-18T23:04:08.109Z,10.43
2022-10-18T23:06:37.704Z,10.68
2022-10-18T23:09:09.533Z,11.73
2022-10-18T23:11:38.629Z,10.73
2022-10-18T23:14:07.940Z,11.32
2022-10-18T23:16:36.986Z,10.95
2022-10-18T23:19:05.804Z,10.85
2022-10-18T23:21:35.200Z,11.95
2022-10-18T23:24:04.254Z,11.18
2022-10-18T23:26:34.349Z,9.98
2022-10-18T23:29:02.971Z,11.15
2022-10-18T23:31:33.435Z,10.25
2022-10-18T23:34:03.941Z,10.13
2022-10-18T23:36:33.779Z,10.27
2022-10-18T23:39:03.099Z,10.75
2022-10-18T23:41:33.360Z,10.70
2022-10-18T23:44:02.418Z,10.27
2022-10-18T23:46:30.897Z,10.93
2022-10-18T23:48:59.375Z,10.50
2022-10-18T23:51:27.915Z,10.30
2022-10-18T23:53:56.387Z,10.93
2022-10-18T23:56:25.088Z,10.30
2022-10-18T23:58:54.989Z,10.93
